Aviation Digital Data Service (ADDS)

Output produced by METARs form (1825 UTC 25 August 2016)
found at http://aviationweather.gov/adds/metars/
 
KACY 251733Z 2518/2618 18012KT P6SM SCT040 BKN150 
     FM260000 20006KT P6SM SCT150 
     FM261400 27008KT P6SM BKN250